Time;durP1;ratioP1;P1;durP2;ratioP2;P2;SDS_P1;SDS_P2;PMS_P1;PMS_P2;Temp;Humidity;BMP_temperature;BMP_pressure;BME280_temperature;BME280_humidity;BME280_pressure;Samples;Min_cycle;Max_cycle;Signal;HPM_P1;HPM_P2
2022/09/23 04:22:44;;;;;;;0.73;0.73;;;7.90;99.90;;;;;;5091427;28;20571;-72
2022/09/23 04:27:45;;;;;;;0.40;0.40;;;7.50;99.90;;;;;;5069864;28;20584;-71
2022/09/23 04:30:12;;;;;;;0.50;0.50;;;7.50;99.90;;;;;;5071401;28;20222;-70
2022/09/23 04:32:38;;;;;;;0.70;0.70;;;7.50;99.90;;;;;;5069538;28;20194;-68
2022/09/23 04:35:04;;;;;;;1.03;0.87;;;7.50;99.90;;;;;;5070896;28;20184;-68
2022/09/23 04:37:30;;;;;;;0.60;0.40;;;7.50;99.90;;;;;;5070971;28;20175;-70
2022/09/23 04:39:55;;;;;;;2.00;0.63;;;7.40;99.90;;;;;;5070964;28;20734;-69
2022/09/23 04:42:21;;;;;;;0.73;0.73;;;7.40;99.90;;;;;;5071052;28;20172;-71
2022/09/23 04:44:47;;;;;;;0.43;0.43;;;7.40;99.90;;;;;;5069417;28;20175;-70
2022/09/23 04:47:12;;;;;;;1.10;0.53;;;7.40;99.90;;;;;;5070154;28;20486;-68
2022/09/23 04:49:38;;;;;;;0.77;0.60;;;7.40;99.90;;;;;;5069293;28;20182;-66
2022/09/23 04:52:04;;;;;;;0.30;0.30;;;7.50;99.90;;;;;;5069592;28;20168;-69
2022/09/23 04:54:31;;;;;;;0.40;0.40;;;8.20;99.90;;;;;;5070575;28;20494;-70
2022/09/23 04:56:57;;;;;;;0.47;0.47;;;9.20;99.90;;;;;;5070389;28;20201;-68
2022/09/23 04:59:23;;;;;;;1.30;1.00;;;10.20;99.90;;;;;;5069399;28;20173;-67
2022/09/23 05:01:50;;;;;;;0.75;0.75;;;11.00;99.90;;;;;;5069958;28;20451;-69
2022/09/23 05:04:16;;;;;;;0.70;0.70;;;11.60;99.90;;;;;;5069082;28;20197;-70
2022/09/23 05:06:44;;;;;;;0.57;0.50;;;11.50;98.90;;;;;;5066718;28;20282;-71
2022/09/23 05:09:15;;;;;;;0.40;0.40;;;11.00;95.40;;;;;;5069568;28;20172;-72
2022/09/23 05:11:40;;;;;;;1.00;1.00;;;10.50;95.00;;;;;;5069245;28;20200;-71
2022/09/23 05:14:06;;;;;;;0.50;0.50;;;9.90;95.90;;;;;;5069716;28;20567;-70
2022/09/23 05:16:32;;;;;;;2.00;1.13;;;9.60;96.80;;;;;;5069945;28;20177;-70
2022/09/23 05:18:58;;;;;;;0.70;0.70;;;9.40;97.40;;;;;;5070076;28;20172;-71
2022/09/23 05:21:26;;;;;;;0.80;0.80;;;9.10;97.90;;;;;;5070102;28;20195;-71
2022/09/23 05:23:54;;;;;;;0.38;0.38;;;8.90;98.30;;;;;;5069604;28;20176;-71
2022/09/23 05:26:24;;;;;;;0.40;0.40;;;8.70;98.80;;;;;;5069684;28;20197;-69
2022/09/23 05:28:50;;;;;;;0.75;0.75;;;8.60;99.20;;;;;;5068647;28;20204;-70
2022/09/23 05:31:18;;;;;;;0.60;0.60;;;8.60;99.40;;;;;;5069595;28;20221;-71
2022/09/23 05:33:50;;;;;;;0.73;0.73;;;8.40;99.50;;;;;;5068750;28;20164;-70
2022/09/23 05:36:17;;;;;;;0.40;0.40;;;8.40;99.90;;;;;;5069105;28;20541;-71
2022/09/23 05:38:43;;;;;;;0.70;0.70;;;8.30;99.90;;;;;;5058628;28;20176;-71
2022/09/23 05:41:12;;;;;;;0.70;0.70;;;8.30;99.90;;;;;;5056834;28;20200;-69
2022/09/23 05:43:38;;;;;;;1.15;0.88;;;8.40;99.90;;;;;;5055457;28;20230;-70
2022/09/23 05:46:11;;;;;;;0.95;0.95;;;8.50;99.90;;;;;;5055525;28;20205;-70
2022/09/23 05:48:37;;;;;;;1.00;1.00;;;8.50;99.90;;;;;;5056507;28;20169;-72
2022/09/23 05:51:07;;;;;;;0.50;0.50;;;8.60;99.90;;;;;;5053377;28;20288;-71
2022/09/23 05:53:33;;;;;;;2.35;1.23;;;8.60;99.90;;;;;;5056129;28;20566;-70
2022/09/23 05:55:59;;;;;;;0.43;0.43;;;8.70;99.90;;;;;;5056674;28;20170;-71
2022/09/23 05:58:26;;;;;;;1.02;1.02;;;8.80;99.90;;;;;;5056059;28;20251;-69
2022/09/23 06:00:55;;;;;;;0.50;0.50;;;9.00;99.90;;;;;;5052753;28;20666;-70
2022/09/23 06:03:22;;;;;;;1.33;1.25;;;9.10;99.90;;;;;;5055742;28;20169;-73
2022/09/23 06:05:52;;;;;;;0.50;0.50;;;9.20;99.90;;;;;;5056118;28;20186;-71
2022/09/23 06:08:17;;;;;;;0.30;0.30;;;9.30;99.90;;;;;;5056340;28;20170;-69
2022/09/23 06:10:45;;;;;;;1.27;1.17;;;9.40;99.90;;;;;;5055886;28;20651;-69
2022/09/23 06:13:11;;;;;;;0.40;0.40;;;9.50;99.90;;;;;;5053931;28;20162;-69
2022/09/23 06:15:38;;;;;;;0.95;0.95;;;9.60;99.90;;;;;;5054263;28;20700;-70
2022/09/23 06:18:05;;;;;;;0.40;0.40;;;9.80;99.90;;;;;;5055097;28;20182;-69
2022/09/23 06:20:32;;;;;;;0.60;0.60;;;9.90;99.90;;;;;;5053840;28;20196;-70
2022/09/23 06:23:05;;;;;;;2.05;1.25;;;10.10;99.60;;;;;;5055379;28;20219;-70
2022/09/23 06:25:35;;;;;;;0.50;0.50;;;10.20;99.30;;;;;;5053540;28;20198;-68
2022/09/23 06:28:01;;;;;;;0.70;0.70;;;10.40;98.90;;;;;;5055387;28;20170;-70
2022/09/23 06:30:27;;;;;;;0.60;0.60;;;10.50;98.30;;;;;;5055213;28;20194;-69
2022/09/23 06:32:55;;;;;;;1.23;1.13;;;10.60;98.00;;;;;;5055038;28;20404;-70
2022/09/23 06:35:24;;;;;;;2.03;1.52;;;10.60;98.20;;;;;;5055336;28;20166;-69
2022/09/23 06:37:50;;;;;;;0.70;0.60;;;10.70;98.40;;;;;;5055103;28;20165;-68
2022/09/23 06:40:16;;;;;;;1.02;1.02;;;10.80;98.60;;;;;;5054986;28;20197;-68
2022/09/23 06:42:43;;;;;;;0.93;0.80;;;11.00;98.40;;;;;;5055042;28;20504;-70
2022/09/23 06:45:11;;;;;;;0.68;0.68;;;11.20;98.30;;;;;;5055221;28;20401;-70
2022/09/23 06:47:38;;;;;;;1.73;1.63;;;11.40;98.00;;;;;;5055489;28;20202;-69
2022/09/23 06:50:04;;;;;;;0.83;0.83;;;11.50;97.90;;;;;;5054038;28;20429;-69
2022/09/23 06:52:30;;;;;;;1.38;0.60;;;11.60;97.90;;;;;;5055081;28;20401;-70
2022/09/23 06:54:56;;;;;;;0.80;0.80;;;11.70;97.70;;;;;;5054705;28;20167;-69
2022/09/23 06:57:23;;;;;;;1.17;1.17;;;11.80;97.70;;;;;;5054979;28;20178;-68
2022/09/23 06:59:49;;;;;;;1.73;1.63;;;11.80;97.70;;;;;;5054762;28;20174;-70
2022/09/23 07:02:14;;;;;;;0.70;0.60;;;11.90;97.60;;;;;;5054625;28;20174;-70
2022/09/23 07:04:40;;;;;;;1.73;1.30;;;12.00;97.60;;;;;;5054314;28;20417;-71
2022/09/23 07:07:06;;;;;;;1.27;1.17;;;12.20;97.50;;;;;;5054694;28;20197;-69
2022/09/23 07:09:31;;;;;;;0.70;0.70;;;12.30;97.40;;;;;;5054835;28;20173;-71
2022/09/23 07:11:57;;;;;;;1.67;1.57;;;12.50;97.30;;;;;;5054478;28;20181;-70
2022/09/23 07:14:23;;;;;;;0.60;0.60;;;12.80;97.20;;;;;;5054223;28;20177;-70
2022/09/23 07:16:49;;;;;;;0.53;0.53;;;13.00;96.80;;;;;;5053525;28;20205;-69
2022/09/23 07:19:15;;;;;;;1.20;1.10;;;13.20;96.70;;;;;;5054495;28;20960;-69
2022/09/23 07:21:40;;;;;;;1.40;1.30;;;13.40;96.40;;;;;;5054370;28;20519;-69
2022/09/23 07:24:06;;;;;;;0.80;0.80;;;13.50;96.00;;;;;;5054117;28;20424;-70
2022/09/23 07:26:32;;;;;;;1.53;1.43;;;13.70;96.00;;;;;;5054475;28;20240;-70
2022/09/23 07:29:03;;;;;;;1.57;1.47;;;13.80;95.70;;;;;;5054236;28;20169;-69
2022/09/23 07:31:33;;;;;;;1.27;1.10;;;14.00;95.70;;;;;;5052458;28;20467;-68
2022/09/23 07:34:02;;;;;;;0.90;0.90;;;14.20;95.40;;;;;;5053987;28;20828;-70
2022/09/23 07:36:31;;;;;;;0.80;0.80;;;14.60;94.80;;;;;;5051689;28;20820;-69
2022/09/23 07:39:01;;;;;;;0.70;0.70;;;14.90;94.10;;;;;;5053826;28;20412;-68
2022/09/23 07:41:27;;;;;;;0.60;0.60;;;15.10;93.80;;;;;;5053277;28;20518;-70
2022/09/23 07:43:57;;;;;;;1.53;0.70;;;15.20;93.70;;;;;;5051057;28;20917;-69
2022/09/23 07:46:25;;;;;;;0.60;0.60;;;15.30;93.60;;;;;;5053321;28;20478;-70
2022/09/23 07:48:52;;;;;;;1.13;1.10;;;15.30;93.20;;;;;;5053095;28;20426;-70
2022/09/23 07:51:37;;;;;;;0.90;0.90;;;15.30;93.40;;;;;;5052754;28;20444;-69
2022/09/23 07:54:06;;;;;;;3.00;1.87;;;15.40;93.30;;;;;;5052914;28;20920;-70
2022/09/23 07:56:33;;;;;;;1.43;1.33;;;15.50;93.30;;;;;;5051111;28;20424;-70
2022/09/23 07:58:59;;;;;;;0.93;0.93;;;15.50;93.60;;;;;;5052765;28;20415;-69
2022/09/23 08:01:32;;;;;;;1.00;0.87;;;15.60;93.90;;;;;;5051896;28;20482;-71
2022/09/23 08:04:00;;;;;;;0.90;0.90;;;15.60;93.50;;;;;;5052798;28;20269;-70
2022/09/23 08:06:26;;;;;;;1.20;1.10;;;15.70;93.50;;;;;;5053956;28;20455;-70
2022/09/23 08:08:52;;;;;;;0.70;0.70;;;15.90;93.10;;;;;;5054128;28;20813;-71
2022/09/23 08:11:18;;;;;;;0.50;0.50;;;16.20;92.80;;;;;;5051986;28;20201;-69
2022/09/23 08:13:44;;;;;;;0.60;0.60;;;16.40;92.70;;;;;;5053207;28;20427;-71
2022/09/23 08:16:09;;;;;;;0.70;0.70;;;16.70;92.40;;;;;;5051997;28;20428;-70
2022/09/23 08:18:35;;;;;;;1.43;1.33;;;17.10;92.30;;;;;;5052069;28;20495;-70
2022/09/23 08:21:02;;;;;;;0.77;0.77;;;17.60;92.20;;;;;;5053413;28;20263;-70
2022/09/23 08:23:32;;;;;;;1.90;0.97;;;18.10;91.60;;;;;;5053291;28;20838;-69
2022/09/23 08:26:00;;;;;;;1.40;1.30;;;18.60;90.10;;;;;;5053243;28;20521;-69
2022/09/23 08:28:26;;;;;;;4.40;1.30;;;19.10;88.90;;;;;;5053299;28;20521;-70
2022/09/23 08:30:52;;;;;;;1.43;1.33;;;19.60;86.70;;;;;;5051945;28;20447;-70
2022/09/23 08:33:18;;;;;;;1.10;0.57;;;19.70;84.50;;;;;;5053238;28;20412;-72
2022/09/23 08:35:44;;;;;;;0.80;0.70;;;19.80;83.90;;;;;;5053246;28;20413;-70
2022/09/23 08:38:10;;;;;;;0.50;0.50;;;20.20;83.40;;;;;;5053424;28;20924;-70
2022/09/23 08:40:41;;;;;;;0.70;0.70;;;20.40;80.50;;;;;;5052050;28;20381;-71
2022/09/23 08:43:27;;;;;;;0.40;0.40;;;20.80;75.50;;;;;;5053446;28;21033;-71
2022/09/23 08:45:56;;;;;;;1.23;0.50;;;21.00;76.00;;;;;;5052952;28;20472;-70
2022/09/23 08:48:48;;;;;;;0.53;0.53;;;21.40;73.60;;;;;;5053349;28;20415;-71
2022/09/23 08:51:19;;;;;;;0.40;0.40;;;22.10;71.80;;;;;;5052952;28;20498;-71
2022/09/23 08:53:46;;;;;;;0.40;0.40;;;23.20;66.20;;;;;;5052828;28;20500;-71
2022/09/23 08:56:15;;;;;;;0.60;0.60;;;24.20;63.20;;;;;;5052517;28;20401;-72
2022/09/23 08:58:59;;;;;;;0.47;0.47;;;25.50;60.90;;;;;;5053624;28;20437;-70
2022/09/23 09:01:43;;;;;;;0.50;0.50;;;26.40;54.70;;;;;;5053119;28;20858;-72
2022/09/23 09:04:17;;;;;;;0.53;0.50;;;26.90;53.20;;;;;;5053196;28;20401;-71
2022/09/23 09:07:12;;;;;;;0.80;0.60;;;27.20;51.20;;;;;;5053207;28;20590;-71
2022/09/23 09:10:08;;;;;;;0.77;0.57;;;27.20;51.10;;;;;;5051376;28;20500;-71
2022/09/23 09:12:45;;;;;;;0.50;0.50;;;27.30;51.00;;;;;;5053398;28;20882;-72
2022/09/23 09:15:27;;;;;;;0.40;0.40;;;27.00;48.70;;;;;;5056845;28;20912;-72
2022/09/23 09:18:07;;;;;;;0.50;0.50;;;27.00;48.40;;;;;;5056860;28;20396;-72
2022/09/23 09:20:39;;;;;;;0.50;0.50;;;27.30;47.90;;;;;;5056710;28;20434;-72
2022/09/23 09:23:18;;;;;;;0.83;0.50;;;27.20;46.90;;;;;;5054834;28;20818;-72
2022/09/23 09:25:48;;;;;;;0.43;0.43;;;27.50;46.50;;;;;;5056669;28;20424;-72
2022/09/23 09:28:34;;;;;;;0.60;0.60;;;28.00;46.00;;;;;;5056106;28;20419;-72
2022/09/23 09:31:04;;;;;;;0.73;0.73;;;28.50;43.30;;;;;;5055070;28;20454;-72
2022/09/23 09:33:48;;;;;;;0.50;0.50;;;28.90;43.20;;;;;;5055662;28;20452;-72
2022/09/23 09:36:29;;;;;;;0.60;0.50;;;28.80;41.50;;;;;;5054700;28;20436;-72
2022/09/23 09:38:57;;;;;;;0.50;0.43;;;28.30;42.40;;;;;;5056298;28;20416;-72
2022/09/23 09:41:27;;;;;;;0.60;0.60;;;27.80;41.10;;;;;;5055344;28;20788;-72
2022/09/23 09:43:56;;;;;;;0.50;0.40;;;28.10;42.90;;;;;;5055424;28;20420;-71
2022/09/23 09:46:25;;;;;;;0.50;0.50;;;28.50;42.00;;;;;;5056271;28;20408;-71
2022/09/23 09:49:07;;;;;;;1.30;0.60;;;29.10;42.10;;;;;;5056375;28;20413;-72
2022/09/23 09:51:34;;;;;;;0.70;0.67;;;29.20;40.50;;;;;;5056054;28;20837;-71
2022/09/23 09:54:24;;;;;;;0.57;0.57;;;28.70;40.50;;;;;;5055862;28;20416;-72
2022/09/23 09:56:51;;;;;;;2.73;0.87;;;28.00;40.10;;;;;;5056240;28;20928;-71
2022/09/23 09:59:42;;;;;;;0.60;0.60;;;27.80;41.40;;;;;;5056079;28;20412;-71
2022/09/23 10:02:25;;;;;;;0.80;0.60;;;27.80;43.00;;;;;;5055955;28;20419;-71
2022/09/23 10:05:46;;;;;;;0.50;0.40;;;27.90;39.80;;;;;;5054546;28;20405;-72
2022/09/23 10:08:27;;;;;;;0.70;0.70;;;27.20;41.00;;;;;;5053279;28;20425;-72
2022/09/23 10:10:59;;;;;;;0.60;0.60;;;27.00;42.00;;;;;;5054314;28;20424;-70
2022/09/23 10:13:26;;;;;;;0.80;0.80;;;27.20;43.60;;;;;;5055015;28;20404;-71
2022/09/23 10:15:55;;;;;;;0.40;0.40;;;27.30;43.10;;;;;;5055525;28;20829;-71
2022/09/23 10:18:37;;;;;;;0.60;0.60;;;27.00;42.60;;;;;;5055400;28;20920;-72
2022/09/23 10:21:13;;;;;;;0.70;0.50;;;26.80;42.20;;;;;;5055667;28;20429;-71
2022/09/23 10:23:50;;;;;;;0.63;0.63;;;26.60;43.40;;;;;;5055139;28;20824;-71
2022/09/23 10:26:17;;;;;;;0.60;0.60;;;25.70;43.40;;;;;;5055333;28;20407;-71
2022/09/23 10:28:58;;;;;;;0.80;0.80;;;25.10;45.40;;;;;;5055508;28;20401;-71
2022/09/23 10:31:26;;;;;;;0.40;0.40;;;25.00;47.50;;;;;;5055337;28;20399;-71
2022/09/23 10:33:59;;;;;;;0.80;0.50;;;25.00;45.80;;;;;;5055317;28;20791;-73
2022/09/23 10:36:30;;;;;;;0.50;0.50;;;24.70;47.90;;;;;;5055387;28;20444;-72
2022/09/23 10:47:54;;;;;;;1.23;0.90;;;24.10;48.30;;;;;;5054942;28;20490;-70
2022/09/23 10:50:37;;;;;;;0.60;0.60;;;23.50;50.30;;;;;;5055188;28;20439;-71
2022/09/23 10:53:11;;;;;;;0.50;0.50;;;23.20;50.40;;;;;;5053573;28;20412;-69
2022/09/23 10:56:18;;;;;;;0.60;0.60;;;23.00;51.80;;;;;;5055379;28;20775;-73
2022/09/23 10:58:54;;;;;;;0.80;0.67;;;22.60;50.90;;;;;;5053414;28;20454;-71
2022/09/23 11:01:31;;;;;;;0.40;0.40;;;22.50;52.00;;;;;;5055125;28;20449;-73
2022/09/23 11:04:36;;;;;;;0.50;0.50;;;22.30;51.30;;;;;;5054483;28;20413;-71
2022/09/23 11:07:22;;;;;;;1.83;0.80;;;22.00;52.30;;;;;;5055087;28;20457;-71
2022/09/23 11:09:57;;;;;;;0.50;0.50;;;21.90;54.40;;;;;;5055130;28;20498;-72
2022/09/23 11:12:35;;;;;;;0.53;0.43;;;21.80;55.00;;;;;;5055193;28;20412;-72
2022/09/23 11:15:31;;;;;;;1.90;0.60;;;21.60;54.70;;;;;;5054575;28;20881;-72
2022/09/23 11:18:09;;;;;;;0.50;0.50;;;21.50;55.70;;;;;;5054884;28;20754;-72
2022/09/23 11:20:56;;;;;;;0.43;0.43;;;21.30;54.50;;;;;;5054537;28;20515;-73
2022/09/23 11:23:50;;;;;;;0.50;0.50;;;21.10;56.90;;;;;;5054314;28;20397;-72
2022/09/23 11:27:06;;;;;;;1.27;0.70;;;21.10;55.50;;;;;;5054264;28;20485;-72
2022/09/23 11:29:53;;;;;;;1.23;0.50;;;21.10;56.40;;;;;;5053024;28;20444;-71
2022/09/23 11:32:34;;;;;;;0.40;0.40;;;21.00;57.40;;;;;;5054445;28;20496;-73
2022/09/23 11:35:37;;;;;;;0.43;0.43;;;21.00;56.50;;;;;;5054413;28;20408;-72
2022/09/23 11:38:43;;;;;;;1.00;1.00;;;21.10;55.50;;;;;;5052069;28;20505;-72
2022/09/23 11:41:20;;;;;;;0.57;0.57;;;21.10;56.20;;;;;;5045611;28;20811;-72
2022/09/23 11:44:08;;;;;;;0.50;0.50;;;20.80;56.50;;;;;;5053782;28;20491;-73
2022/09/23 11:46:37;;;;;;;0.40;0.40;;;20.90;58.20;;;;;;5054102;28;20549;-71
2022/09/23 11:49:25;;;;;;;0.63;0.63;;;21.00;58.50;;;;;;5054215;28;20949;-71
2022/09/23 11:52:19;;;;;;;0.43;0.43;;;21.00;56.10;;;;;;5054048;28;20429;-72
2022/09/23 11:55:05;;;;;;;0.47;0.47;;;21.10;57.60;;;;;;5053856;28;20482;-72
2022/09/23 11:57:52;;;;;;;0.60;0.60;;;20.80;56.80;;;;;;5053325;28;20478;-71
2022/09/23 12:00:21;;;;;;;0.50;0.50;;;20.80;57.90;;;;;;5052991;28;20944;-73
2022/09/23 12:02:56;;;;;;;2.60;0.87;;;20.70;56.20;;;;;;5053435;28;20404;-73
2022/09/23 12:05:24;;;;;;;0.40;0.40;;;20.40;55.00;;;;;;5052023;28;20985;-72
2022/09/23 12:08:05;;;;;;;0.40;0.40;;;20.40;56.50;;;;;;5051388;28;20407;-71
2022/09/23 12:10:41;;;;;;;0.40;0.40;;;20.50;56.30;;;;;;5053993;28;20421;-71
2022/09/23 12:13:19;;;;;;;0.60;0.60;;;20.50;58.90;;;;;;5053948;28;20506;-72
2022/09/23 12:16:09;;;;;;;0.60;0.60;;;20.20;56.60;;;;;;5052283;28;20408;-72
2022/09/23 12:18:51;;;;;;;0.50;0.40;;;20.30;55.80;;;;;;5053923;28;20526;-71
2022/09/23 12:21:38;;;;;;;0.40;0.40;;;20.30;57.90;;;;;;5053478;28;20429;-72
2022/09/23 12:24:23;;;;;;;0.60;0.53;;;20.40;57.10;;;;;;5053674;28;20493;-71
2022/09/23 12:26:53;;;;;;;0.60;0.60;;;20.40;55.40;;;;;;5053446;28;20422;-73
2022/09/23 12:29:19;;;;;;;1.53;1.43;;;20.20;55.70;;;;;;5052658;28;20428;-71
2022/09/23 12:31:45;;;;;;;0.50;0.50;;;20.30;57.20;;;;;;5053919;28;20426;-72
2022/09/23 12:34:34;;;;;;;1.03;0.53;;;20.30;57.40;;;;;;5053190;28;20904;-72
2022/09/23 12:37:04;;;;;;;5.60;0.70;;;20.20;57.20;;;;;;5053616;28;20450;-72
2022/09/23 12:39:33;;;;;;;0.40;0.40;;;20.20;58.80;;;;;;5052989;28;20905;-72
2022/09/23 12:42:23;;;;;;;0.40;0.40;;;20.20;58.60;;;;;;5052469;28;20412;-71
2022/09/23 12:44:49;;;;;;;0.80;0.70;;;20.10;59.60;;;;;;5052276;28;20469;-71
2022/09/23 12:47:24;;;;;;;0.40;0.40;;;20.10;58.10;;;;;;5053161;28;20887;-72
2022/09/23 12:49:53;;;;;;;0.40;0.40;;;20.00;62.00;;;;;;5057106;28;20407;-72
2022/09/23 12:52:19;;;;;;;0.53;0.50;;;20.00;59.30;;;;;;5057296;28;20481;-72
2022/09/23 12:54:49;;;;;;;0.50;0.50;;;19.90;59.70;;;;;;5055571;28;20473;-72
2022/09/23 12:57:20;;;;;;;0.40;0.40;;;19.90;60.30;;;;;;5057213;28;20270;-72
2022/09/23 12:59:57;;;;;;;0.70;0.60;;;20.00;63.30;;;;;;5056864;28;20408;-71
2022/09/23 13:02:28;;;;;;;0.50;0.50;;;20.10;60.40;;;;;;5056936;28;20487;-72
2022/09/23 13:08:14;;;;;;;0.67;0.50;;;20.00;64.30;;;;;;5056921;28;20397;-71
2022/09/23 13:10:53;;;;;;;0.50;0.50;;;19.80;61.10;;;;;;5056892;28;20423;-72
2022/09/23 13:13:30;;;;;;;1.40;1.30;;;19.70;61.50;;;;;;5056727;28;20941;-71
2022/09/23 13:16:28;;;;;;;0.60;0.50;;;19.70;67.40;;;;;;5057099;28;20439;-71
2022/09/23 13:18:56;;;;;;;0.47;0.47;;;19.60;62.60;;;;;;5056800;28;20919;-71
2022/09/23 13:21:43;;;;;;;0.50;0.43;;;19.70;62.40;;;;;;5056724;28;20476;-72
2022/09/23 13:24:12;;;;;;;0.50;0.40;;;19.80;64.10;;;;;;5055142;28;20927;-73
2022/09/23 13:26:43;;;;;;;0.50;0.50;;;19.80;69.40;;;;;;5056356;28;20427;-71
2022/09/23 13:29:27;;;;;;;0.50;0.50;;;19.60;66.90;;;;;;5056722;28;20410;-71
2022/09/23 13:31:56;;;;;;;1.40;0.80;;;19.20;64.40;;;;;;5056380;28;20832;-72
2022/09/23 13:34:25;;;;;;;0.40;0.40;;;19.10;66.00;;;;;;5056106;28;20421;-71
2022/09/23 13:36:50;;;;;;;0.50;0.50;;;19.10;66.90;;;;;;5056406;28;20964;-72
2022/09/23 13:39:23;;;;;;;0.70;0.70;;;19.10;73.00;;;;;;5055010;28;20510;-71
2022/09/23 13:41:57;;;;;;;0.40;0.40;;;19.10;73.50;;;;;;5056267;28;20251;-72
2022/09/23 13:44:23;;;;;;;0.60;0.60;;;19.20;75.40;;;;;;5054833;28;20468;-71
2022/09/23 13:46:56;;;;;;;0.50;0.50;;;19.40;76.30;;;;;;5055263;28;20814;-71
2022/09/23 13:49:23;;;;;;;1.83;1.80;;;19.50;70.90;;;;;;5055817;28;20184;-72
2022/09/23 13:51:52;;;;;;;0.40;0.40;;;19.50;69.00;;;;;;5054552;28;20523;-70
2022/09/23 13:54:34;;;;;;;0.60;0.60;;;19.30;68.60;;;;;;5055632;28;20457;-72
2022/09/23 13:57:00;;;;;;;0.97;0.97;;;19.20;71.50;;;;;;5054651;28;21018;-72
2022/09/23 13:59:28;;;;;;;0.53;0.47;;;19.10;69.70;;;;;;5055182;28;20418;-71
2022/09/23 14:02:15;;;;;;;0.60;0.50;;;19.10;72.70;;;;;;5055798;28;20202;-74
2022/09/23 14:04:41;;;;;;;0.50;0.50;;;19.20;80.40;;;;;;5056094;28;20423;-71
2022/09/23 14:07:10;;;;;;;0.40;0.40;;;19.30;78.80;;;;;;5056156;28;20430;-72
2022/09/23 14:09:40;;;;;;;0.93;0.93;;;19.30;78.30;;;;;;5056357;28;20889;-72
2022/09/23 14:12:08;;;;;;;0.87;0.87;;;19.50;77.30;;;;;;5055995;28;20407;-72
2022/09/23 14:14:36;;;;;;;0.73;0.73;;;19.40;82.40;;;;;;5055844;28;20849;-71
2022/09/23 14:17:04;;;;;;;0.40;0.40;;;19.30;75.10;;;;;;5055841;28;20455;-72
2022/09/23 14:19:31;;;;;;;0.70;0.70;;;19.30;78.50;;;;;;5056038;28;20418;-72
2022/09/23 14:21:57;;;;;;;2.47;0.90;;;19.20;73.20;;;;;;5056110;28;20888;-71
2022/09/23 14:24:30;;;;;;;1.13;1.13;;;19.20;77.50;;;;;;5055300;28;20500;-71
2022/09/23 14:27:07;;;;;;;1.37;1.27;;;19.10;84.10;;;;;;5055535;28;20463;-72
2022/09/23 14:29:38;;;;;;;0.77;0.50;;;18.90;78.70;;;;;;5055906;28;20416;-71
2022/09/23 14:32:13;;;;;;;1.23;0.70;;;18.80;76.70;;;;;;5056170;28;20397;-72
2022/09/23 14:35:02;;;;;;;0.83;0.60;;;18.90;77.20;;;;;;5055080;28;20818;-72
2022/09/23 14:40:30;;;;;;;0.80;0.80;;;19.00;78.80;;;;;;5055158;28;20499;-71
2022/09/23 14:43:02;;;;;;;0.40;0.40;;;18.80;77.70;;;;;;5054955;28;20463;-70
2022/09/23 14:45:38;;;;;;;0.50;0.50;;;18.80;82.60;;;;;;5055130;28;20407;-73
2022/09/23 14:48:21;;;;;;;0.60;0.60;;;18.90;85.90;;;;;;5055487;28;20503;-71
2022/09/23 14:50:56;;;;;;;0.40;0.40;;;18.90;85.30;;;;;;5055322;28;20814;-71
2022/09/23 14:53:21;;;;;;;0.43;0.43;;;18.80;82.60;;;;;;5055074;28;20412;-71
2022/09/23 14:56:06;;;;;;;1.17;0.83;;;18.90;84.90;;;;;;5055031;28;20481;-71
2022/09/23 14:58:56;;;;;;;0.40;0.40;;;18.90;83.50;;;;;;5055209;28;20175;-72
2022/09/23 15:01:25;;;;;;;0.50;0.50;;;18.70;80.70;;;;;;5054963;28;20436;-71
2022/09/23 15:03:51;;;;;;;0.70;0.57;;;18.70;83.00;;;;;;5054779;28;20496;-71
2022/09/23 15:06:18;;;;;;;0.80;0.73;;;18.80;82.80;;;;;;5054732;28;20417;-71
2022/09/23 15:08:44;;;;;;;0.50;0.50;;;18.90;84.80;;;;;;5054922;28;20408;-70
2022/09/23 15:11:10;;;;;;;0.50;0.50;;;19.00;83.70;;;;;;5054012;28;20449;-72
2022/09/23 15:13:40;;;;;;;0.97;0.97;;;18.80;89.10;;;;;;5054500;28;20429;-71
2022/09/23 15:16:06;;;;;;;0.60;0.60;;;18.40;89.40;;;;;;5052991;28;20505;-71
2022/09/23 15:18:37;;;;;;;0.90;0.80;;;18.30;91.20;;;;;;5054075;28;20896;-70
2022/09/23 15:21:05;;;;;;;0.50;0.50;;;18.30;92.10;;;;;;5054433;28;20476;-71
2022/09/23 15:23:42;;;;;;;0.80;0.60;;;18.20;92.90;;;;;;5052593;28;20400;-70
2022/09/23 15:26:21;;;;;;;0.60;0.60;;;18.30;91.80;;;;;;5054431;28;20887;-70
2022/09/23 15:28:48;;;;;;;0.50;0.43;;;18.30;90.20;;;;;;5054611;28;20417;-71
2022/09/23 15:31:17;;;;;;;0.90;0.90;;;18.30;93.10;;;;;;5053762;28;21104;-71
2022/09/23 15:33:49;;;;;;;0.50;0.50;;;18.20;92.90;;;;;;5052406;28;20416;-70
2022/09/23 15:36:24;;;;;;;0.60;0.60;;;18.10;93.60;;;;;;5054165;28;20441;-70
2022/09/23 15:38:51;;;;;;;0.60;0.60;;;18.10;94.00;;;;;;5054315;28;20928;-71
2022/09/23 15:41:16;;;;;;;0.53;0.53;;;18.00;94.50;;;;;;5052623;28;20464;-71
2022/09/23 15:43:42;;;;;;;0.63;0.47;;;18.00;94.70;;;;;;5053879;28;20491;-70
2022/09/23 15:46:16;;;;;;;0.50;0.50;;;17.90;95.00;;;;;;5054194;28;20651;-71
2022/09/23 15:48:49;;;;;;;1.00;1.00;;;17.90;95.40;;;;;;5054236;28;20633;-70
2022/09/23 15:51:15;;;;;;;1.20;0.90;;;17.70;95.90;;;;;;5053975;28;20428;-71
2022/09/23 15:53:41;;;;;;;0.77;0.50;;;17.60;96.40;;;;;;5053967;28;20423;-71
2022/09/23 15:56:06;;;;;;;0.60;0.60;;;17.40;97.10;;;;;;5053737;28;20635;-70
2022/09/23 15:58:32;;;;;;;0.50;0.50;;;17.40;97.70;;;;;;5053946;28;20524;-69
2022/09/23 16:00:58;;;;;;;0.53;0.53;;;17.30;97.90;;;;;;5054020;28;20265;-70
2022/09/23 16:03:27;;;;;;;0.40;0.40;;;17.30;98.00;;;;;;5053645;28;20693;-71
2022/09/23 16:05:58;;;;;;;0.63;0.63;;;17.20;98.00;;;;;;5054208;28;20492;-70
2022/09/23 16:08:24;;;;;;;0.90;0.63;;;17.20;98.20;;;;;;5054026;28;20463;-71
2022/09/23 16:10:50;;;;;;;0.60;0.60;;;17.10;98.10;;;;;;5052209;28;20429;-71
2022/09/23 16:13:17;;;;;;;0.43;0.43;;;17.10;98.60;;;;;;5053498;28;20166;-70
2022/09/23 16:15:43;;;;;;;1.00;1.00;;;17.00;98.80;;;;;;5053773;28;20405;-70
2022/09/23 16:18:10;;;;;;;0.80;0.50;;;16.90;98.80;;;;;;5053644;28;20409;-70
2022/09/23 16:20:41;;;;;;;1.10;1.00;;;16.90;98.80;;;;;;5053312;28;20450;-70
2022/09/23 16:23:15;;;;;;;2.47;0.93;;;16.90;99.10;;;;;;5053017;28;20436;-70
2022/09/23 16:25:41;;;;;;;0.73;0.73;;;16.80;99.00;;;;;;5053627;28;20424;-71
2022/09/23 16:28:06;;;;;;;0.50;0.50;;;16.70;99.30;;;;;;5053593;28;20412;-70
2022/09/23 16:30:33;;;;;;;0.60;0.60;;;16.70;99.30;;;;;;5053367;28;20201;-71
2022/09/23 16:33:00;;;;;;;0.73;0.73;;;16.60;99.30;;;;;;5053168;28;20174;-71
2022/09/23 16:35:27;;;;;;;0.60;0.60;;;16.60;99.60;;;;;;5053436;28;20407;-69
2022/09/23 16:37:54;;;;;;;0.67;0.67;;;16.50;99.70;;;;;;5053387;28;20448;-70
2022/09/23 16:40:22;;;;;;;0.47;0.47;;;16.40;99.80;;;;;;5053138;28;20520;-71
2022/09/23 16:42:50;;;;;;;0.60;0.60;;;16.30;99.90;;;;;;5053151;28;20416;-71
2022/09/23 16:45:18;;;;;;;0.93;0.57;;;16.20;99.90;;;;;;5053279;28;20980;-70
2022/09/23 16:47:45;;;;;;;0.60;0.50;;;16.10;99.90;;;;;;5053355;28;20440;-70
2022/09/23 16:50:13;;;;;;;0.60;0.60;;;16.00;99.90;;;;;;5053690;28;20431;-71
2022/09/23 16:52:39;;;;;;;0.50;0.50;;;16.00;99.90;;;;;;5052932;28;20916;-70
2022/09/23 16:55:07;;;;;;;0.50;0.50;;;16.00;99.90;;;;;;5051893;28;20902;-70
2022/09/23 16:57:37;;;;;;;1.20;1.10;;;16.10;99.90;;;;;;5053100;28;20452;-70
2022/09/23 17:05:39;;;;;;;0.60;0.60;;;15.90;99.90;;;;;;5052991;28;20403;-69
2022/09/23 17:08:06;;;;;;;0.67;0.67;;;15.90;99.90;;;;;;5053098;28;20413;-70
2022/09/23 17:10:32;;;;;;;0.77;0.60;;;15.90;99.90;;;;;;5053074;28;20196;-70
2022/09/23 17:12:59;;;;;;;0.77;0.77;;;15.90;99.90;;;;;;5052701;28;20450;-70
2022/09/23 17:15:25;;;;;;;0.97;0.83;;;15.90;99.90;;;;;;5052894;28;20411;-69
2022/09/23 17:17:50;;;;;;;1.00;0.70;;;15.80;99.90;;;;;;5052822;28;20456;-71
2022/09/23 17:20:16;;;;;;;1.47;1.37;;;15.80;99.90;;;;;;5052881;28;20245;-69
2022/09/23 17:22:42;;;;;;;1.60;1.53;;;15.70;99.90;;;;;;5052773;28;20199;-71
2022/09/23 17:25:08;;;;;;;1.47;1.30;;;15.70;99.90;;;;;;5052982;28;20249;-70
2022/09/23 17:27:36;;;;;;;0.60;0.60;;;15.60;99.90;;;;;;5052917;28;20464;-70
2022/09/23 17:30:02;;;;;;;1.00;1.00;;;15.60;99.90;;;;;;5052881;28;20438;-71
2022/09/23 17:32:27;;;;;;;0.80;0.80;;;15.60;99.90;;;;;;5052802;28;20421;-71
2022/09/23 17:34:53;;;;;;;1.33;1.00;;;15.70;99.90;;;;;;5055192;28;20435;-69
2022/09/23 17:37:19;;;;;;;0.67;0.67;;;15.70;99.90;;;;;;5056405;28;20239;-70
2022/09/23 17:39:45;;;;;;;0.87;0.60;;;15.80;99.90;;;;;;5056384;28;20166;-70
2022/09/23 17:42:10;;;;;;;1.37;0.90;;;15.70;99.90;;;;;;5056220;28;20243;-70
2022/09/23 17:44:36;;;;;;;1.07;0.97;;;15.60;99.90;;;;;;5056129;28;20946;-70
2022/09/23 17:47:04;;;;;;;0.50;0.50;;;15.50;99.90;;;;;;5056156;28;20185;-70
2022/09/23 17:49:33;;;;;;;1.07;1.07;;;15.40;99.90;;;;;;5056121;28;20177;-69
2022/09/23 17:52:03;;;;;;;1.73;0.90;;;15.30;99.90;;;;;;5056010;28;20501;-69
2022/09/23 17:54:30;;;;;;;0.70;0.70;;;15.30;99.90;;;;;;5054319;28;20419;-69
2022/09/23 17:56:58;;;;;;;3.03;0.90;;;15.30;99.90;;;;;;5055846;28;20494;-70